PADL/DLG METAR and TAF weather

Enter ICAO airport designator
Station Type Date Time Source
PADL METAR 2019/10/23 12:56 UTC NOAA

PADL 231256Z AUTO 06019G31KT 4SM -RA BR FEW015 OVC038 05/04 A2871 RMK AO2 PK WND 06035/1231 RAB38 SLP725 P0000 T00500039


Station Type Date Time Source
PADL Decoded METAR 2019/10/23 12:56 UTC NOAA

Dillingham, Dillingham Airport, AK, United States (PADL) 59-03N 158-31W 29M
Oct 23, 2019 - 08:56 AM EDT / 2019.10.23 1256 UTC
Wind: from the ENE (060 degrees) at 22 MPH (19 KT) gusting to 36 MPH (31 KT):0
Visibility: 4 mile(s):0
Sky conditions: overcast
Weather: light rain; mist
Precipitation last hour: A trace
Temperature: 41.0 F (5.0 C)
Dew Point: 39.0 F (3.9 C)
Relative Humidity: 92%
Pressure (altimeter): 28.71 in. Hg (972 hPa)
ob: PADL 231256Z AUTO 06019G31KT 4SM -RA BR FEW015 OVC038 05/04 A2871 RMK AO2 PK WND 06035/1231 RAB38 SLP725 P0000 T00500039
cycle: 13

Station Type Date Time Source
PADL TAF 2019/10/23 12:30 UTC NOAA

TAF PADL 231126Z 2312/2412 04027G35KT P6SM -RA BKN015 OVC035
TEMPO 2312/2315 5SM RA OVC010
FM231500 04020G30KT P6SM -SHRA BKN030 OVC050
FM232100 03015G25KT 6SM -RA OVC022
FM240200 34014KT 5SM -RA BR OVC015
FM241000 30008KT P6SM BKN040

Example: see airport list